createdAt,value
2022-11-17T00:01:26.583Z,100480.94
2022-11-17T00:03:55.826Z,100469.13
2022-11-17T00:06:25.174Z,100467.19
2022-11-17T00:08:53.024Z,100454.50
2022-11-17T00:11:19.572Z,100460.63
2022-11-17T00:14:04.669Z,100451.06
2022-11-17T00:16:31.263Z,100456.56
2022-11-17T00:19:16.519Z,100436.81
2022-11-17T00:21:44.495Z,100445.66
2022-11-17T00:24:11.083Z,100437.63
2022-11-17T00:27:00.620Z,100426.09
2022-11-17T00:29:27.684Z,100436.00
2022-11-17T00:32:12.834Z,100433.03
2022-11-17T00:34:39.388Z,100438.22
2022-11-17T00:37:07.175Z,100429.41
2022-11-17T00:39:35.535Z,100428.22
2022-11-17T00:42:02.339Z,100424.72
2022-11-17T00:44:29.612Z,100434.28
2022-11-17T00:46:56.591Z,100426.50
2022-11-17T00:49:26.396Z,100421.50
2022-11-17T00:51:53.732Z,100426.19
2022-11-17T00:54:21.103Z,100434.56
2022-11-17T00:56:48.120Z,100429.25
2022-11-17T00:59:15.583Z,100420.41
2022-11-17T01:01:42.963Z,100419.50
2022-11-17T01:04:09.756Z,100413.50
2022-11-17T01:06:37.607Z,100417.06
2022-11-17T01:09:13.170Z,100417.31
2022-11-17T01:11:40.260Z,100404.72
2022-11-17T01:14:07.107Z,100410.69
2022-11-17T01:16:37.116Z,100405.53
2022-11-17T01:19:04.351Z,100410.28
2022-11-17T01:21:31.641Z,100394.59
2022-11-17T01:23:59.875Z,100413.38
2022-11-17T01:26:34.995Z,100401.56
2022-11-17T01:29:02.926Z,100399.81
2022-11-17T01:31:32.649Z,100391.31
2022-11-17T01:34:00.054Z,100394.16
2022-11-17T01:36:56.921Z,100391.31
2022-11-17T01:39:25.063Z,100387.44
2022-11-17T01:41:53.118Z,100385.84
2022-11-17T01:44:44.595Z,100389.75
2022-11-17T01:47:21.935Z,100387.03
2022-11-17T01:49:57.664Z,100386.28
2022-11-17T01:52:25.610Z,100389.84
2022-11-17T01:54:55.336Z,100391.56
2022-11-17T01:57:27.309Z,100386.41
2022-11-17T02:00:06.996Z,100387.13
2022-11-17T02:02:35.221Z,100391.00
2022-11-17T02:05:16.770Z,100378.53
2022-11-17T02:07:46.147Z,100379.09
2022-11-17T02:10:12.825Z,100382.16
2022-11-17T02:12:40.064Z,100375.31
2022-11-17T02:15:06.964Z,100384.97
2022-11-17T02:17:39.116Z,100380.84
2022-11-17T02:20:11.916Z,100387.50
2022-11-17T02:23:10.509Z,100384.28
2022-11-17T02:25:43.258Z,100369.75
2022-11-17T02:28:20.887Z,100376.94
2022-11-17T02:31:22.660Z,100362.22
2022-11-17T02:34:00.505Z,100364.69
2022-11-17T02:37:07.531Z,100368.16
2022-11-17T02:39:43.406Z,100363.47
2022-11-17T02:42:46.372Z,100375.22
2022-11-17T02:45:22.571Z,100364.75
2022-11-17T02:47:54.258Z,100350.56
2022-11-17T02:50:28.051Z,100349.53
2022-11-17T02:52:55.276Z,100359.31
2022-11-17T02:55:21.818Z,100351.97
2022-11-17T02:57:49.669Z,100352.59
2022-11-17T03:00:20.399Z,100351.97
2022-11-17T03:03:21.197Z,100351.19
2022-11-17T03:05:56.704Z,100359.47
2022-11-17T03:08:36.792Z,100334.91
2022-11-17T03:11:06.641Z,100347.13
2022-11-17T03:13:54.567Z,100362.88
2022-11-17T03:16:24.009Z,100348.94
2022-11-17T03:19:04.184Z,100348.56
2022-11-17T03:21:41.338Z,100349.59
2022-11-17T03:24:08.194Z,100346.34
2022-11-17T03:26:49.247Z,100335.25
2022-11-17T03:29:19.222Z,100344.50
2022-11-17T03:31:49.029Z,100333.59
2022-11-17T03:34:22.159Z,100347.97
2022-11-17T03:36:58.158Z,100343.72
2022-11-17T03:39:32.058Z,100342.56
2022-11-17T03:42:21.252Z,100322.09
2022-11-17T03:44:53.826Z,100339.34
2022-11-17T03:47:25.275Z,100325.59
2022-11-17T03:50:02.069Z,100330.28
2022-11-17T03:52:33.060Z,100321.97
2022-11-17T03:55:00.417Z,100333.94
2022-11-17T03:57:51.588Z,100324.31
2022-11-17T04:00:19.595Z,100322.84
2022-11-17T04:02:49.383Z,100330.16
2022-11-17T04:05:17.496Z,100313.19
2022-11-17T04:07:46.941Z,100307.09
2022-11-17T04:10:22.138Z,100319.25
2022-11-17T04:13:09.054Z,100310.91
2022-11-17T04:15:54.225Z,100311.09
2022-11-17T04:18:21.777Z,100320.25
2022-11-17T04:20:56.094Z,100322.66
2022-11-17T04:23:23.978Z,100316.94
2022-11-17T04:26:13.905Z,100317.72
2022-11-17T04:28:47.499Z,100303.31
2022-11-17T04:31:20.264Z,100298.00
2022-11-17T04:33:52.301Z,100298.78
2022-11-17T04:36:22.722Z,100311.00
2022-11-17T04:38:51.961Z,100293.72
2022-11-17T04:41:38.449Z,100289.47
2022-11-17T04:44:07.302Z,100308.50
2022-11-17T04:46:35.528Z,100305.75
2022-11-17T04:49:04.147Z,100299.56
2022-11-17T04:51:32.075Z,100305.94
2022-11-17T04:53:59.097Z,100302.44
2022-11-17T04:56:26.296Z,100304.66
2022-11-17T04:58:53.331Z,100304.63
2022-11-17T05:01:20.983Z,100306.75
2022-11-17T05:03:56.340Z,100302.66
2022-11-17T05:06:28.004Z,100288.19
2022-11-17T05:08:56.301Z,100290.75
2022-11-17T05:11:43.934Z,100299.91
2022-11-17T05:14:11.456Z,100303.31
2022-11-17T05:16:56.610Z,100306.88
2022-11-17T05:19:25.770Z,100298.91
2022-11-17T05:21:53.027Z,100305.84
2022-11-17T05:24:20.387Z,100298.78
2022-11-17T05:26:48.548Z,100297.63
2022-11-17T05:29:18.478Z,100300.34
2022-11-17T05:31:45.719Z,100287.13
2022-11-17T05:34:14.075Z,100287.28
2022-11-17T05:36:41.758Z,100274.50
2022-11-17T05:39:09.283Z,100283.44
2022-11-17T05:41:37.202Z,100279.78
2022-11-17T05:44:04.437Z,100284.22
2022-11-17T05:46:31.181Z,100283.56
2022-11-17T05:48:57.868Z,100279.75
2022-11-17T05:51:24.935Z,100279.88
2022-11-17T05:53:51.552Z,100282.25
2022-11-17T05:56:33.569Z,100282.63
2022-11-17T05:59:15.236Z,100286.06
2022-11-17T06:02:17.789Z,100284.31
2022-11-17T06:04:46.153Z,100287.94
2022-11-17T06:07:12.826Z,100277.56
2022-11-17T06:09:42.066Z,100276.78
2022-11-17T06:12:09.250Z,100280.13
2022-11-17T06:14:37.566Z,100280.06
2022-11-17T06:17:21.598Z,100279.56
2022-11-17T06:19:55.838Z,100267.59
2022-11-17T06:22:27.079Z,100265.00
2022-11-17T06:24:54.965Z,100267.63
2022-11-17T06:27:22.047Z,100260.22
2022-11-17T06:29:49.538Z,100267.63
2022-11-17T06:32:18.152Z,100262.72
2022-11-17T06:34:55.818Z,100263.50
2022-11-17T06:37:23.821Z,100266.50
2022-11-17T06:39:50.647Z,100269.84
2022-11-17T06:42:40.253Z,100271.94
2022-11-17T06:45:07.573Z,100261.56
2022-11-17T06:47:37.150Z,100265.94
2022-11-17T06:50:04.524Z,100261.81
2022-11-17T06:52:31.272Z,100257.34
2022-11-17T06:54:57.868Z,100262.13
2022-11-17T06:57:24.467Z,100256.16
2022-11-17T06:59:52.534Z,100267.44
2022-11-17T07:02:19.357Z,100276.56
2022-11-17T07:04:45.996Z,100261.75
2022-11-17T07:07:13.049Z,100275.13
2022-11-17T07:09:39.673Z,100267.13
2022-11-17T07:12:06.325Z,100261.63
2022-11-17T07:14:32.856Z,100260.69
2022-11-17T07:16:59.557Z,100256.44
2022-11-17T07:19:26.126Z,100257.16
2022-11-17T07:21:52.975Z,100252.34
2022-11-17T07:24:19.610Z,100258.16
2022-11-17T07:26:46.276Z,100253.25
2022-11-17T07:29:12.966Z,100259.88
2022-11-17T07:31:39.596Z,100242.91
2022-11-17T07:34:06.324Z,100236.34
2022-11-17T07:36:33.240Z,100247.84
2022-11-17T07:38:59.890Z,100246.09
2022-11-17T07:41:26.531Z,100240.31
2022-11-17T07:43:53.113Z,100249.50
2022-11-17T07:46:19.651Z,100248.72
2022-11-17T07:48:46.668Z,100241.84
2022-11-17T07:51:14.188Z,100229.75
2022-11-17T07:53:40.908Z,100235.31
2022-11-17T07:56:10.721Z,100239.91
2022-11-17T07:58:38.097Z,100238.47
2022-11-17T08:01:10.507Z,100243.66
2022-11-17T08:03:37.654Z,100245.16
2022-11-17T08:06:06.516Z,100240.84
2022-11-17T08:08:34.215Z,100246.91
2022-11-17T08:11:06.160Z,100245.78
2022-11-17T08:13:33.333Z,100245.22
2022-11-17T08:16:00.196Z,100244.78
2022-11-17T08:18:27.089Z,100255.66
2022-11-17T08:21:01.670Z,100238.88
2022-11-17T08:23:28.442Z,100242.50
2022-11-17T08:25:55.048Z,100243.34
2022-11-17T08:28:22.459Z,100241.25
2022-11-17T08:30:49.135Z,100238.50
2022-11-17T08:33:15.806Z,100240.56
2022-11-17T08:35:42.522Z,100246.56
2022-11-17T08:38:11.609Z,100237.00
2022-11-17T08:40:38.668Z,100238.56
2022-11-17T08:43:05.340Z,100234.91
2022-11-17T08:45:34.328Z,100242.28
2022-11-17T08:48:01.204Z,100238.50
2022-11-17T08:50:28.170Z,100243.16
2022-11-17T08:52:54.748Z,100233.78
2022-11-17T08:55:21.390Z,100223.47
2022-11-17T08:57:47.962Z,100228.94
2022-11-17T09:00:15.329Z,100230.16
2022-11-17T09:02:42.023Z,100225.91
2022-11-17T09:05:08.917Z,100223.91
2022-11-17T09:07:35.774Z,100219.56
2022-11-17T09:10:05.811Z,100219.56
2022-11-17T09:12:32.507Z,100222.81
2022-11-17T09:14:59.076Z,100221.38
2022-11-17T09:17:25.756Z,100221.91
2022-11-17T09:19:52.443Z,100216.00
2022-11-17T09:22:19.825Z,100233.66
2022-11-17T09:24:46.447Z,100218.41
2022-11-17T09:27:13.824Z,100217.59
2022-11-17T09:29:43.257Z,100201.56
2022-11-17T09:32:09.784Z,100221.31
2022-11-17T09:34:36.496Z,100218.59
2022-11-17T09:37:03.164Z,100209.72
2022-11-17T09:39:29.842Z,100206.53
2022-11-17T09:41:57.453Z,100217.25
2022-11-17T09:44:29.774Z,100202.44
2022-11-17T09:47:11.790Z,100205.09
2022-11-17T09:49:45.621Z,100214.47
2022-11-17T09:52:25.703Z,100201.13
2022-11-17T09:54:56.757Z,100207.91
2022-11-17T09:57:33.960Z,100211.25
2022-11-17T10:00:06.034Z,100199.88
2022-11-17T10:02:33.321Z,100210.34
2022-11-17T10:05:00.596Z,100205.38
2022-11-17T10:07:29.711Z,100199.69
2022-11-17T10:09:58.442Z,100197.59
2022-11-17T10:12:52.575Z,100196.19
2022-11-17T10:15:28.450Z,100201.00
2022-11-17T10:17:55.268Z,100203.81
2022-11-17T10:20:22.269Z,100198.97
2022-11-17T10:22:52.082Z,100204.00
2022-11-17T10:25:36.703Z,100199.28
2022-11-17T10:28:04.713Z,100188.72
2022-11-17T10:30:31.384Z,100203.09
2022-11-17T10:33:00.395Z,100199.75
2022-11-17T10:35:33.816Z,100193.19
2022-11-17T10:38:03.455Z,100185.91
2022-11-17T10:40:32.541Z,100202.50
2022-11-17T10:43:22.058Z,100203.16
2022-11-17T10:45:50.415Z,100190.91
2022-11-17T10:48:24.273Z,100196.91
2022-11-17T10:50:53.085Z,100193.66
2022-11-17T10:53:44.881Z,100189.53
2022-11-17T10:56:21.823Z,100183.28
2022-11-17T10:58:56.785Z,100179.56
2022-11-17T11:01:38.519Z,100174.41
2022-11-17T11:04:07.822Z,100190.28
2022-11-17T11:06:35.493Z,100183.13
2022-11-17T11:09:09.654Z,100182.91
2022-11-17T11:11:46.876Z,100180.59
2022-11-17T11:14:38.410Z,100170.38
2022-11-17T11:17:13.496Z,100176.66
2022-11-17T11:19:42.712Z,100184.41
2022-11-17T11:22:53.807Z,100189.13
2022-11-17T11:25:46.270Z,100188.38
2022-11-17T11:28:15.941Z,100191.44
2022-11-17T11:31:21.439Z,100180.59
2022-11-17T11:34:02.243Z,100184.16
2022-11-17T11:36:44.499Z,100165.72
2022-11-17T11:39:33.796Z,100169.72
2022-11-17T11:42:37.472Z,100179.56
2022-11-17T11:48:17.572Z,100176.28
2022-11-17T11:50:57.676Z,100179.72
2022-11-17T11:53:31.799Z,100161.69
2022-11-17T11:56:30.534Z,100179.03
2022-11-17T11:59:20.570Z,100179.28
2022-11-17T12:01:52.958Z,100176.06
2022-11-17T12:04:40.079Z,100169.94
2022-11-17T12:07:19.747Z,100181.25
2022-11-17T12:10:00.126Z,100155.47
2022-11-17T12:12:46.525Z,100158.38
2022-11-17T12:15:19.058Z,100159.53
2022-11-17T12:18:13.985Z,100157.94
2022-11-17T12:20:51.550Z,100158.09
2022-11-17T12:23:36.387Z,100159.59
2022-11-17T12:26:03.568Z,100160.28
2022-11-17T12:28:38.185Z,100166.06
2022-11-17T12:31:10.202Z,100151.44
2022-11-17T12:33:52.329Z,100165.19
2022-11-17T12:36:30.245Z,100168.97
2022-11-17T12:39:18.492Z,100153.94
2022-11-17T12:41:48.223Z,100170.06
2022-11-17T12:44:45.731Z,100150.00
2022-11-17T12:47:29.272Z,100157.84
2022-11-17T12:50:18.384Z,100154.44
2022-11-17T12:53:09.065Z,100149.59
2022-11-17T12:55:35.781Z,100154.75
2022-11-17T12:58:32.021Z,100147.09
2022-11-17T13:01:04.396Z,100151.25
2022-11-17T13:03:41.355Z,100148.59
2022-11-17T13:06:34.350Z,100144.06
2022-11-17T13:09:06.088Z,100141.25
2022-11-17T13:11:33.519Z,100131.41
2022-11-17T13:14:13.198Z,100140.50
2022-11-17T13:17:00.108Z,100134.00
2022-11-17T13:19:34.715Z,100138.16
2022-11-17T13:22:21.270Z,100125.91
2022-11-17T13:24:49.854Z,100127.59
2022-11-17T13:27:36.617Z,100118.72
2022-11-17T13:30:21.495Z,100123.34
2022-11-17T13:32:49.078Z,100116.44
2022-11-17T13:35:25.329Z,100125.72
2022-11-17T13:38:06.448Z,100118.16
2022-11-17T13:40:35.638Z,100125.38
2022-11-17T13:43:04.111Z,100127.75
2022-11-17T13:45:34.051Z,100128.47
2022-11-17T13:48:00.700Z,100124.88
2022-11-17T13:50:27.270Z,100117.63
2022-11-17T13:52:55.851Z,100118.84
2022-11-17T13:55:24.599Z,100123.09
2022-11-17T13:58:06.894Z,100113.97
2022-11-17T14:00:37.204Z,100123.69
2022-11-17T14:03:06.026Z,100113.66
2022-11-17T14:05:33.808Z,100114.28
2022-11-17T14:08:24.412Z,100113.31
2022-11-17T14:11:09.788Z,100121.28
2022-11-17T14:13:48.253Z,100104.72
2022-11-17T14:16:26.654Z,100120.38
2022-11-17T14:19:05.822Z,100126.19
2022-11-17T14:21:33.334Z,100118.69
2022-11-17T14:24:12.701Z,100109.75
2022-11-17T14:26:45.983Z,100117.16
2022-11-17T14:29:13.486Z,100114.13
2022-11-17T14:31:40.105Z,100117.91
2022-11-17T14:34:06.806Z,100117.00
2022-11-17T14:36:33.608Z,100116.31
2022-11-17T14:39:01.820Z,100121.22
2022-11-17T14:41:28.990Z,100119.63
2022-11-17T14:43:55.617Z,100116.13
2022-11-17T14:46:26.623Z,100123.56
2022-11-17T14:48:54.145Z,100118.09
2022-11-17T14:51:21.436Z,100119.59
2022-11-17T14:53:48.303Z,100122.78
2022-11-17T14:56:18.001Z,100119.53
2022-11-17T14:58:52.618Z,100119.66
2022-11-17T15:01:25.605Z,100134.09
2022-11-17T15:03:53.146Z,100130.22
2022-11-17T15:06:20.461Z,100131.03
2022-11-17T15:08:48.432Z,100131.38
2022-11-17T15:11:17.878Z,100126.59
2022-11-17T15:13:47.146Z,100120.34
2022-11-17T15:16:14.280Z,100113.09
2022-11-17T15:18:43.849Z,100112.19
2022-11-17T15:21:10.944Z,100127.03
2022-11-17T15:23:39.619Z,100121.50
2022-11-17T15:26:08.672Z,100129.19
2022-11-17T15:28:38.223Z,100122.63
2022-11-17T15:31:19.353Z,100120.66
2022-11-17T15:33:47.380Z,100125.25
2022-11-17T15:36:17.226Z,100128.09
2022-11-17T15:38:45.244Z,100120.88
2022-11-17T15:41:21.125Z,100118.03
2022-11-17T15:43:49.125Z,100119.34
2022-11-17T15:46:17.673Z,100114.03
2022-11-17T15:48:52.560Z,100114.75
2022-11-17T15:51:24.853Z,100111.81
2022-11-17T15:53:55.908Z,100120.59
2022-11-17T15:56:36.568Z,100126.50
2022-11-17T15:59:07.799Z,100124.38
2022-11-17T16:01:36.896Z,100124.34
2022-11-17T16:04:15.398Z,100130.09
2022-11-17T16:06:43.744Z,100123.41
2022-11-17T16:09:14.116Z,100119.19
2022-11-17T16:11:41.261Z,100125.13
2022-11-17T16:14:08.208Z,100124.59
2022-11-17T16:16:39.079Z,100133.00
2022-11-17T16:19:06.491Z,100113.84
2022-11-17T16:21:33.624Z,100121.09
2022-11-17T16:24:02.340Z,100123.19
2022-11-17T16:26:30.121Z,100125.69
2022-11-17T16:29:01.391Z,100116.19
2022-11-17T16:31:30.180Z,100125.50
2022-11-17T16:34:07.244Z,100127.41
2022-11-17T16:36:37.962Z,100114.31
2022-11-17T16:39:07.505Z,100125.22
2022-11-17T16:41:36.553Z,100126.78
2022-11-17T16:44:07.680Z,100128.47
2022-11-17T16:46:34.342Z,100124.34
2022-11-17T16:49:03.550Z,100135.09
2022-11-17T16:51:30.448Z,100137.47
2022-11-17T16:54:00.114Z,100128.03
2022-11-17T16:56:27.014Z,100134.09
2022-11-17T16:58:54.733Z,100144.34
2022-11-17T17:01:24.096Z,100145.69
2022-11-17T17:03:58.864Z,100135.00
2022-11-17T17:06:26.017Z,100133.56
2022-11-17T17:09:00.506Z,100133.09
2022-11-17T17:11:29.223Z,100131.91
2022-11-17T17:14:00.051Z,100123.25
2022-11-17T17:16:26.694Z,100124.16
2022-11-17T17:18:59.517Z,100129.47
2022-11-17T17:21:28.098Z,100128.78
2022-11-17T17:23:58.277Z,100139.88
2022-11-17T17:26:27.805Z,100133.09
2022-11-17T17:29:00.396Z,100125.50
2022-11-17T17:31:34.853Z,100123.81
2022-11-17T17:34:01.968Z,100122.25
2022-11-17T17:36:37.682Z,100131.22
2022-11-17T17:39:05.701Z,100121.59
2022-11-17T17:41:39.942Z,100129.38
2022-11-17T17:44:08.494Z,100131.75
2022-11-17T17:46:44.465Z,100135.78
2022-11-17T17:49:14.395Z,100133.75
2022-11-17T17:51:44.172Z,100133.81
2022-11-17T17:54:20.285Z,100124.31
2022-11-17T17:56:49.983Z,100134.88
2022-11-17T17:59:19.697Z,100129.84
2022-11-17T18:01:51.722Z,100130.66
2022-11-17T18:04:18.321Z,100135.53
2022-11-17T18:06:48.679Z,100134.09
2022-11-17T18:09:19.512Z,100136.53
2022-11-17T18:11:52.536Z,100146.88
2022-11-17T18:14:25.206Z,100144.81
2022-11-17T18:16:52.172Z,100156.53
2022-11-17T18:19:19.068Z,100150.81
2022-11-17T18:21:48.984Z,100161.97
2022-11-17T18:24:18.524Z,100160.53
2022-11-17T18:26:45.102Z,100168.84
2022-11-17T18:29:16.233Z,100160.53
2022-11-17T18:31:46.636Z,100165.28
2022-11-17T18:34:16.554Z,100161.78
2022-11-17T18:36:43.135Z,100161.16
2022-11-17T18:39:09.834Z,100160.94
2022-11-17T18:41:37.593Z,100153.56
2022-11-17T18:44:04.252Z,100159.47
2022-11-17T18:46:32.340Z,100153.56
2022-11-17T18:48:59.558Z,100166.56
2022-11-17T18:51:30.780Z,100166.22
2022-11-17T18:53:59.271Z,100165.72
2022-11-17T18:56:37.427Z,100168.00
2022-11-17T18:59:12.135Z,100173.78
2022-11-17T19:01:42.895Z,100166.69
2022-11-17T19:04:12.625Z,100166.97
2022-11-17T19:06:42.265Z,100174.31
2022-11-17T19:09:09.335Z,100159.03
2022-11-17T19:11:38.503Z,100160.00
2022-11-17T19:17:10.138Z,100167.31
2022-11-17T19:19:37.081Z,100173.63
2022-11-17T19:25:06.919Z,100178.72
2022-11-17T19:27:33.696Z,100156.97
2022-11-17T19:30:00.337Z,100172.94
2022-11-17T19:32:27.049Z,100168.72
2022-11-17T19:34:54.206Z,100182.88
2022-11-17T19:37:21.336Z,100171.78
2022-11-17T19:39:47.886Z,100171.03
2022-11-17T19:42:14.480Z,100177.28
2022-11-17T19:44:41.013Z,100172.50
2022-11-17T19:47:07.675Z,100169.38
2022-11-17T19:49:34.802Z,100172.44
2022-11-17T19:52:01.712Z,100169.09
2022-11-17T20:15:36.391Z,100177.44
2022-11-17T20:18:05.499Z,100169.84
2022-11-17T20:20:32.112Z,100169.69
2022-11-17T20:22:58.823Z,100164.28
2022-11-17T20:25:25.408Z,100169.59
2022-11-17T20:27:52.108Z,100166.50
2022-11-17T20:30:18.963Z,100170.47
2022-11-17T20:32:45.515Z,100178.13
2022-11-17T20:35:12.126Z,100173.09
2022-11-17T20:37:38.842Z,100171.75
2022-11-17T20:40:06.034Z,100176.81
2022-11-17T20:42:32.714Z,100169.31
2022-11-17T20:44:59.316Z,100168.09
2022-11-17T20:47:27.507Z,100168.16
2022-11-17T20:49:55.166Z,100176.91
2022-11-17T20:52:21.913Z,100179.34
2022-11-17T20:54:48.490Z,100174.03
2022-11-17T20:57:15.188Z,100168.00
2022-11-17T20:59:41.889Z,100180.25
2022-11-17T21:02:10.715Z,100183.66
2022-11-17T21:04:37.328Z,100187.16
2022-11-17T21:07:04.337Z,100173.94
2022-11-17T21:09:31.015Z,100186.34
2022-11-17T21:11:57.625Z,100182.13
2022-11-17T21:14:26.504Z,100181.56
2022-11-17T21:16:54.599Z,100184.56
2022-11-17T21:19:21.932Z,100180.91
2022-11-17T21:21:50.350Z,100182.22
2022-11-17T21:24:17.545Z,100187.25
2022-11-17T21:26:44.128Z,100181.38
2022-11-17T21:29:10.990Z,100165.97
2022-11-17T21:31:37.758Z,100196.28
2022-11-17T21:34:06.478Z,100197.50
2022-11-17T21:36:34.709Z,100189.59
2022-11-17T21:39:01.620Z,100200.97
2022-11-17T21:41:30.212Z,100197.31
2022-11-17T21:44:01.992Z,100198.63
2022-11-17T21:46:31.370Z,100193.84
2022-11-17T21:48:59.639Z,100189.44
2022-11-17T21:51:34.609Z,100196.75
2022-11-17T21:54:03.649Z,100189.00
2022-11-17T21:56:31.832Z,100207.75
2022-11-17T21:59:04.806Z,100199.63
2022-11-17T22:01:33.948Z,100196.34
2022-11-17T22:04:01.127Z,100205.31
2022-11-17T22:06:30.248Z,100207.13
2022-11-17T22:08:59.326Z,100212.19
2022-11-17T22:11:35.589Z,100207.59
2022-11-17T22:14:16.293Z,100202.09
2022-11-17T22:17:02.794Z,100215.28
2022-11-17T22:19:34.723Z,100211.00
2022-11-17T22:22:01.461Z,100203.38
2022-11-17T22:24:28.240Z,100203.44
2022-11-17T22:26:55.296Z,100202.75
2022-11-17T22:29:22.729Z,100208.19
2022-11-17T22:31:50.095Z,100217.75
2022-11-17T22:34:20.379Z,100211.13
2022-11-17T22:36:47.528Z,100211.41
2022-11-17T22:39:15.726Z,100216.91
2022-11-17T22:41:42.712Z,100216.16
2022-11-17T22:44:18.584Z,100224.59
2022-11-17T22:46:47.842Z,100225.34
2022-11-17T22:49:15.141Z,100212.22
2022-11-17T22:52:00.689Z,100209.50
2022-11-17T22:54:38.618Z,100224.50
2022-11-17T23:00:05.857Z,100214.47
2022-11-17T23:02:40.588Z,100212.84
2022-11-17T23:05:10.131Z,100224.03
2022-11-17T23:07:37.160Z,100210.84
2022-11-17T23:10:04.218Z,100213.13
2022-11-17T23:12:39.864Z,100216.19
2022-11-17T23:15:07.476Z,100214.31
2022-11-17T23:17:34.877Z,100217.38
2022-11-17T23:20:07.787Z,100221.75
2022-11-17T23:22:34.946Z,100212.97
2022-11-17T23:25:03.358Z,100210.28
2022-11-17T23:27:30.095Z,100211.88
2022-11-17T23:29:57.350Z,100217.81
2022-11-17T23:33:10.747Z,100217.72
2022-11-17T23:35:48.894Z,100220.94
2022-11-17T23:38:15.649Z,100229.09
2022-11-17T23:40:42.887Z,100226.38
2022-11-17T23:43:11.763Z,100220.53
2022-11-17T23:45:41.095Z,100225.19
2022-11-17T23:48:07.905Z,100221.00
2022-11-17T23:50:37.278Z,100233.00
2022-11-17T23:53:05.584Z,100239.00
2022-11-17T23:55:32.643Z,100233.97
2022-11-17T23:57:59.661Z,100236.00
